EZY96QE EDDL-EGKK
Flight info
| Callsign | EZY96QE |
|---|---|
| Flight time | 1h 2m |
| Altitude | 32000 |
| Route | MODRU7Z MODRU Z717 MAS UM617 SOGRI DCT DENUT L610 TEBRA |
| Aircraft | A320/M-SDE3FGHIRWY/LB1 |
Departure
| Time | 2026-05-06 19:49 |
|---|---|
| Airport | Düsseldorf Airport (EDDL) |
Arrival
| Time | 2026-05-06 20:52 |
|---|---|
| Airport | London Gatwick Airport (EGKK) |
| Time | Latitude | Longitude | Altitude | Speed | Heading |
|---|---|---|---|---|---|
| 2026-05-06 19:09 | 51.28189 | 6.76564 | 124 ft | 0 kts | 121° |
| 2026-05-06 19:39 | 51.28194 | 6.76551 | 124 ft | 4 kts | 122° |
| 2026-05-06 19:39 | 51.28208 | 6.76515 | 122 ft | 4 kts | 125° |
| 2026-05-06 19:39 | 51.28225 | 6.76481 | 126 ft | 4 kts | 137° |
| 2026-05-06 19:39 | 51.28244 | 6.76462 | 124 ft | 4 kts | 193° |
| 2026-05-06 19:40 | 51.28259 | 6.76483 | 123 ft | 4 kts | 232° |
| 2026-05-06 19:40 | 51.28276 | 6.76518 | 121 ft | 4 kts | 232° |
| 2026-05-06 19:40 | 51.28292 | 6.76552 | 124 ft | 4 kts | 232° |
| 2026-05-06 19:40 | 51.28308 | 6.76586 | 121 ft | 4 kts | 232° |
| 2026-05-06 19:41 | 51.28316 | 6.76602 | 121 ft | 0 kts | 232° |
| 2026-05-06 19:43 | 51.28309 | 6.76588 | 121 ft | 2 kts | 232° |
| 2026-05-06 19:43 | 51.28299 | 6.76568 | 123 ft | 2 kts | 232° |
| 2026-05-06 19:44 | 51.28295 | 6.76517 | 123 ft | 8 kts | 293° |
| 2026-05-06 19:44 | 51.28313 | 6.76408 | 124 ft | 13 kts | 239° |
| 2026-05-06 19:44 | 51.28253 | 6.76280 | 125 ft | 16 kts | 232° |
| 2026-05-06 19:44 | 51.28183 | 6.76136 | 126 ft | 17 kts | 232° |
| 2026-05-06 19:45 | 51.28119 | 6.76001 | 127 ft | 15 kts | 233° |
| 2026-05-06 19:45 | 51.28056 | 6.75870 | 128 ft | 15 kts | 233° |
| 2026-05-06 19:45 | 51.27987 | 6.75724 | 128 ft | 14 kts | 232° |
| 2026-05-06 19:45 | 51.27940 | 6.75626 | 127 ft | 11 kts | 232° |
| 2026-05-06 19:46 | 51.27891 | 6.75525 | 125 ft | 11 kts | 232° |
| 2026-05-06 19:46 | 51.27848 | 6.75435 | 127 ft | 10 kts | 232° |
| 2026-05-06 19:46 | 51.27835 | 6.75405 | 124 ft | 3 kts | 238° |
| 2026-05-06 19:46 | 51.27834 | 6.75365 | 125 ft | 7 kts | 287° |
| 2026-05-06 19:47 | 51.27894 | 6.75306 | 122 ft | 11 kts | 334° |
| 2026-05-06 19:47 | 51.27970 | 6.75256 | 124 ft | 12 kts | 3° |
| 2026-05-06 19:47 | 51.28016 | 6.75316 | 124 ft | 0 kts | 53° |
| 2026-05-06 19:48 | 51.28016 | 6.75317 | 124 ft | 2 kts | 53° |
| 2026-05-06 19:48 | 51.28133 | 6.75559 | 125 ft | 66 kts | 52° |
| 2026-05-06 19:49 | 51.28556 | 6.76443 | 129 ft | 131 kts | 53° |
| 2026-05-06 19:49 | 51.29183 | 6.77756 | 503 ft | 152 kts | 50° |
| 2026-05-06 19:49 | 51.29812 | 6.79098 | 1340 ft | 151 kts | 50° |
| 2026-05-06 19:49 | 51.30469 | 6.80486 | 1932 ft | 167 kts | 49° |
| 2026-05-06 19:50 | 51.31219 | 6.82057 | 2369 ft | 188 kts | 50° |
| 2026-05-06 19:50 | 51.32058 | 6.83816 | 2803 ft | 207 kts | 51° |
| 2026-05-06 19:50 | 51.32983 | 6.85750 | 3250 ft | 232 kts | 50° |
| 2026-05-06 19:50 | 51.33993 | 6.87911 | 3939 ft | 249 kts | 52° |
| 2026-05-06 19:51 | 51.35181 | 6.89950 | 4887 ft | 254 kts | 32° |
| 2026-05-06 19:51 | 51.36841 | 6.90912 | 5863 ft | 258 kts | 5° |
| 2026-05-06 19:51 | 51.38615 | 6.91117 | 6877 ft | 260 kts | 7° |
| 2026-05-06 19:51 | 51.40411 | 6.91553 | 7831 ft | 263 kts | 10° |
| 2026-05-06 19:52 | 51.42230 | 6.92107 | 8771 ft | 268 kts | 11° |
| 2026-05-06 19:52 | 51.44077 | 6.92690 | 9706 ft | 273 kts | 11° |
| 2026-05-06 19:52 | 51.46001 | 6.93032 | 10324 ft | 289 kts | 356° |
| 2026-05-06 19:52 | 51.47978 | 6.92037 | 10712 ft | 311 kts | 328° |
| 2026-05-06 19:53 | 51.49509 | 6.89530 | 11426 ft | 323 kts | 301° |
| 2026-05-06 19:53 | 51.50143 | 6.86049 | 12238 ft | 333 kts | 273° |
| 2026-05-06 19:53 | 51.49667 | 6.82395 | 13055 ft | 342 kts | 245° |
| 2026-05-06 19:53 | 51.48265 | 6.79271 | 13877 ft | 349 kts | 230° |
| 2026-05-06 19:54 | 51.46560 | 6.76471 | 14644 ft | 352 kts | 225° |
| 2026-05-06 19:54 | 51.44740 | 6.73827 | 15427 ft | 353 kts | 223° |
| 2026-05-06 19:54 | 51.42886 | 6.71229 | 16224 ft | 354 kts | 223° |
| 2026-05-06 19:54 | 51.41038 | 6.68610 | 17055 ft | 355 kts | 223° |
| 2026-05-06 19:55 | 51.39209 | 6.65941 | 17834 ft | 357 kts | 224° |
| 2026-05-06 19:55 | 51.37393 | 6.63215 | 18532 ft | 359 kts | 225° |
| 2026-05-06 19:55 | 51.35581 | 6.60442 | 19151 ft | 362 kts | 225° |
| 2026-05-06 19:55 | 51.33762 | 6.57635 | 19761 ft | 365 kts | 225° |
| 2026-05-06 19:56 | 51.31925 | 6.54799 | 20387 ft | 369 kts | 225° |
| 2026-05-06 19:56 | 51.30065 | 6.51934 | 21002 ft | 372 kts | 225° |
| 2026-05-06 19:56 | 51.28212 | 6.49090 | 21588 ft | 375 kts | 224° |
| 2026-05-06 19:56 | 51.26320 | 6.46195 | 22169 ft | 378 kts | 224° |
| 2026-05-06 19:57 | 51.24406 | 6.43277 | 22743 ft | 381 kts | 224° |
| 2026-05-06 19:57 | 51.22482 | 6.40352 | 23327 ft | 384 kts | 224° |
| 2026-05-06 19:57 | 51.20539 | 6.37397 | 23763 ft | 387 kts | 224° |
| 2026-05-06 19:57 | 51.18586 | 6.34426 | 23889 ft | 388 kts | 224° |
| 2026-05-06 19:58 | 51.16632 | 6.31459 | 23917 ft | 387 kts | 224° |
| 2026-05-06 19:58 | 51.14686 | 6.28508 | 23912 ft | 388 kts | 223° |
| 2026-05-06 19:58 | 51.12720 | 6.25538 | 23915 ft | 389 kts | 223° |
| 2026-05-06 19:58 | 51.10923 | 6.22336 | 23927 ft | 389 kts | 236° |
| 2026-05-06 19:59 | 51.09779 | 6.18450 | 23936 ft | 390 kts | 253° |
| 2026-05-06 19:59 | 51.09441 | 6.14182 | 23944 ft | 391 kts | 272° |
| 2026-05-06 19:59 | 51.09697 | 6.09878 | 23936 ft | 391 kts | 275° |
| 2026-05-06 19:59 | 51.09989 | 6.05577 | 23940 ft | 390 kts | 275° |
| 2026-05-06 20:00 | 51.10277 | 6.01343 | 23938 ft | 390 kts | 275° |
| 2026-05-06 20:00 | 51.10567 | 5.97051 | 23944 ft | 390 kts | 275° |
| 2026-05-06 20:00 | 51.10855 | 5.92768 | 23942 ft | 389 kts | 275° |
| 2026-05-06 20:00 | 51.11138 | 5.88478 | 23937 ft | 390 kts | 275° |
| 2026-05-06 20:01 | 51.11417 | 5.84195 | 23945 ft | 390 kts | 275° |
| 2026-05-06 20:01 | 51.11696 | 5.79893 | 23922 ft | 390 kts | 275° |
| 2026-05-06 20:01 | 51.11975 | 5.75599 | 23938 ft | 390 kts | 275° |
| 2026-05-06 20:01 | 51.12254 | 5.71290 | 24060 ft | 393 kts | 275° |
| 2026-05-06 20:02 | 51.12534 | 5.66957 | 24617 ft | 393 kts | 275° |
| 2026-05-06 20:02 | 51.12810 | 5.62610 | 25133 ft | 395 kts | 275° |
| 2026-05-06 20:02 | 51.13080 | 5.58292 | 25599 ft | 397 kts | 275° |
| 2026-05-06 20:02 | 51.13354 | 5.53899 | 26057 ft | 399 kts | 275° |
| 2026-05-06 20:03 | 51.13631 | 5.49485 | 26512 ft | 402 kts | 275° |
| 2026-05-06 20:03 | 51.13909 | 5.45036 | 26957 ft | 404 kts | 275° |
| 2026-05-06 20:03 | 51.14186 | 5.40571 | 27393 ft | 407 kts | 275° |
| 2026-05-06 20:03 | 51.14466 | 5.36067 | 27829 ft | 409 kts | 275° |
| 2026-05-06 20:04 | 51.14742 | 5.31537 | 28261 ft | 412 kts | 274° |
| 2026-05-06 20:04 | 51.15017 | 5.26981 | 28694 ft | 414 kts | 274° |
| 2026-05-06 20:04 | 51.15293 | 5.22395 | 29103 ft | 417 kts | 274° |
| 2026-05-06 20:04 | 51.15570 | 5.17781 | 29482 ft | 420 kts | 275° |
| 2026-05-06 20:05 | 51.15845 | 5.13133 | 29857 ft | 423 kts | 274° |
| 2026-05-06 20:05 | 51.16115 | 5.08502 | 30212 ft | 426 kts | 274° |
| 2026-05-06 20:05 | 51.16393 | 5.03732 | 30549 ft | 428 kts | 274° |
| 2026-05-06 20:05 | 51.16668 | 4.99052 | 30882 ft | 430 kts | 274° |
| 2026-05-06 20:06 | 51.16945 | 4.94294 | 31194 ft | 432 kts | 274° |
| 2026-05-06 20:06 | 51.17218 | 4.89512 | 31520 ft | 434 kts | 274° |
| 2026-05-06 20:06 | 51.17490 | 4.84722 | 31861 ft | 435 kts | 274° |
| 2026-05-06 20:06 | 51.17760 | 4.79924 | 31949 ft | 428 kts | 274° |
| 2026-05-06 20:07 | 51.18018 | 4.75299 | 31951 ft | 411 kts | 274° |
| 2026-05-06 20:07 | 51.18268 | 4.70829 | 31956 ft | 401 kts | 274° |
| 2026-05-06 20:07 | 51.18670 | 4.63525 | 31972 ft | 396 kts | 275° |
| 2026-05-06 20:08 | 51.19145 | 4.54792 | 31984 ft | 396 kts | 274° |
| 2026-05-06 20:08 | 51.19611 | 4.46045 | 31978 ft | 395 kts | 274° |
| 2026-05-06 20:09 | 51.20068 | 4.37310 | 31986 ft | 395 kts | 274° |
| 2026-05-06 20:09 | 51.20528 | 4.28575 | 31983 ft | 395 kts | 274° |
| 2026-05-06 20:10 | 51.20980 | 4.19844 | 31962 ft | 395 kts | 274° |
| 2026-05-06 20:10 | 51.21423 | 4.11123 | 31957 ft | 394 kts | 274° |
| 2026-05-06 20:11 | 51.21861 | 4.02407 | 31953 ft | 395 kts | 274° |
| 2026-05-06 20:11 | 51.22286 | 3.93673 | 31947 ft | 395 kts | 274° |
| 2026-05-06 20:12 | 51.22707 | 3.84946 | 31948 ft | 394 kts | 274° |
| 2026-05-06 20:12 | 51.23122 | 3.76224 | 31943 ft | 394 kts | 274° |
| 2026-05-06 20:13 | 51.23524 | 3.67510 | 31945 ft | 394 kts | 275° |
| 2026-05-06 20:13 | 51.24520 | 3.58907 | 31954 ft | 394 kts | 282° |
| 2026-05-06 20:14 | 51.25669 | 3.50360 | 31953 ft | 394 kts | 282° |
| 2026-05-06 20:14 | 51.26795 | 3.41857 | 31966 ft | 394 kts | 282° |
| 2026-05-06 20:15 | 51.27918 | 3.33286 | 31967 ft | 394 kts | 281° |
| 2026-05-06 20:15 | 51.29019 | 3.24703 | 31970 ft | 394 kts | 281° |
| 2026-05-06 20:16 | 51.30104 | 3.16134 | 31997 ft | 393 kts | 281° |
| 2026-05-06 20:16 | 51.31177 | 3.07584 | 31990 ft | 392 kts | 281° |
| 2026-05-06 20:17 | 51.32254 | 2.99056 | 31992 ft | 390 kts | 281° |
| 2026-05-06 20:17 | 51.33317 | 2.90623 | 31690 ft | 388 kts | 281° |
| 2026-05-06 20:18 | 51.33839 | 2.86419 | 31366 ft | 383 kts | 281° |
| 2026-05-06 20:18 | 51.34352 | 2.82268 | 30925 ft | 379 kts | 281° |
| 2026-05-06 20:18 | 51.34861 | 2.78150 | 30454 ft | 375 kts | 280° |
| 2026-05-06 20:18 | 51.35365 | 2.74065 | 29997 ft | 372 kts | 280° |
| 2026-05-06 20:19 | 51.35863 | 2.70026 | 29533 ft | 367 kts | 280° |
| 2026-05-06 20:19 | 51.36358 | 2.66054 | 29105 ft | 362 kts | 280° |
| 2026-05-06 20:19 | 51.36835 | 2.62200 | 28699 ft | 356 kts | 280° |
| 2026-05-06 20:19 | 51.37315 | 2.58323 | 28295 ft | 351 kts | 280° |
| 2026-05-06 20:20 | 51.37786 | 2.54510 | 27899 ft | 347 kts | 280° |
| 2026-05-06 20:20 | 51.38246 | 2.50749 | 27490 ft | 343 kts | 280° |
| 2026-05-06 20:20 | 51.38698 | 2.47026 | 27089 ft | 339 kts | 280° |
| 2026-05-06 20:20 | 51.39144 | 2.43340 | 26681 ft | 336 kts | 279° |
| 2026-05-06 20:21 | 51.39584 | 2.39683 | 26265 ft | 333 kts | 279° |
| 2026-05-06 20:21 | 51.40018 | 2.36065 | 25848 ft | 330 kts | 280° |
| 2026-05-06 20:21 | 51.40450 | 2.32459 | 25425 ft | 329 kts | 280° |
| 2026-05-06 20:21 | 51.40873 | 2.28919 | 25015 ft | 327 kts | 280° |
| 2026-05-06 20:22 | 51.41301 | 2.25347 | 24575 ft | 326 kts | 280° |
| 2026-05-06 20:22 | 51.41689 | 2.21770 | 23985 ft | 329 kts | 274° |
| 2026-05-06 20:22 | 51.41826 | 2.18051 | 23093 ft | 340 kts | 272° |
| 2026-05-06 20:22 | 51.41922 | 2.14255 | 22557 ft | 340 kts | 271° |
| 2026-05-06 20:23 | 51.42001 | 2.10492 | 22124 ft | 337 kts | 271° |
| 2026-05-06 20:23 | 51.42073 | 2.06753 | 21679 ft | 334 kts | 271° |
| 2026-05-06 20:23 | 51.42146 | 2.03047 | 21271 ft | 331 kts | 271° |
| 2026-05-06 20:23 | 51.42222 | 1.99378 | 20844 ft | 328 kts | 272° |
| 2026-05-06 20:24 | 51.42302 | 1.95743 | 20435 ft | 325 kts | 272° |
| 2026-05-06 20:24 | 51.42379 | 1.92178 | 20028 ft | 323 kts | 272° |
| 2026-05-06 20:24 | 51.42455 | 1.88539 | 19622 ft | 321 kts | 272° |
| 2026-05-06 20:24 | 51.42532 | 1.84974 | 19220 ft | 320 kts | 272° |
| 2026-05-06 20:25 | 51.42607 | 1.81422 | 18819 ft | 318 kts | 272° |
| 2026-05-06 20:25 | 51.42679 | 1.77885 | 18420 ft | 317 kts | 272° |
| 2026-05-06 20:25 | 51.42750 | 1.74358 | 17986 ft | 316 kts | 272° |
| 2026-05-06 20:25 | 51.42821 | 1.70853 | 17588 ft | 314 kts | 272° |
| 2026-05-06 20:26 | 51.42890 | 1.67367 | 17200 ft | 312 kts | 272° |
| 2026-05-06 20:26 | 51.42958 | 1.63954 | 16827 ft | 310 kts | 272° |
| 2026-05-06 20:26 | 51.43025 | 1.60514 | 16452 ft | 308 kts | 272° |
| 2026-05-06 20:26 | 51.43090 | 1.57102 | 16085 ft | 306 kts | 272° |
| 2026-05-06 20:27 | 51.43150 | 1.53694 | 15716 ft | 305 kts | 272° |
| 2026-05-06 20:27 | 51.43208 | 1.50292 | 15347 ft | 304 kts | 272° |
| 2026-05-06 20:27 | 51.43266 | 1.46907 | 14981 ft | 303 kts | 272° |
| 2026-05-06 20:27 | 51.43323 | 1.43535 | 14616 ft | 302 kts | 271° |
| 2026-05-06 20:28 | 51.43081 | 1.40200 | 14252 ft | 303 kts | 256° |
| 2026-05-06 20:28 | 51.42248 | 1.37119 | 14014 ft | 302 kts | 239° |
| 2026-05-06 20:28 | 51.40909 | 1.34539 | 14005 ft | 304 kts | 223° |
| 2026-05-06 20:28 | 51.39228 | 1.32462 | 14014 ft | 305 kts | 218° |
| 2026-05-06 20:29 | 51.37516 | 1.30441 | 14008 ft | 306 kts | 218° |
| 2026-05-06 20:29 | 51.35800 | 1.28425 | 14010 ft | 306 kts | 218° |
| 2026-05-06 20:29 | 51.34087 | 1.26410 | 14010 ft | 306 kts | 218° |
| 2026-05-06 20:29 | 51.32378 | 1.24395 | 14005 ft | 306 kts | 218° |
| 2026-05-06 20:30 | 51.30690 | 1.22404 | 14007 ft | 305 kts | 218° |
| 2026-05-06 20:30 | 51.27248 | 1.18356 | 14011 ft | 305 kts | 218° |
| 2026-05-06 20:30 | 51.25562 | 1.16367 | 14012 ft | 305 kts | 218° |
| 2026-05-06 20:31 | 51.23853 | 1.14348 | 14014 ft | 305 kts | 218° |
| 2026-05-06 20:31 | 51.22145 | 1.12340 | 14014 ft | 305 kts | 218° |
| 2026-05-06 20:31 | 51.20434 | 1.10330 | 14015 ft | 305 kts | 218° |
| 2026-05-06 20:31 | 51.18719 | 1.08318 | 13924 ft | 306 kts | 218° |
| 2026-05-06 20:32 | 51.16971 | 1.06270 | 13115 ft | 318 kts | 218° |
| 2026-05-06 20:32 | 51.15178 | 1.04173 | 12575 ft | 321 kts | 218° |
| 2026-05-06 20:32 | 51.13378 | 1.02070 | 12141 ft | 319 kts | 218° |
| 2026-05-06 20:32 | 51.11618 | 1.00017 | 12014 ft | 308 kts | 218° |
| 2026-05-06 20:33 | 51.09919 | 0.98039 | 12016 ft | 299 kts | 218° |
| 2026-05-06 20:33 | 51.08246 | 0.96090 | 12022 ft | 298 kts | 218° |
| 2026-05-06 20:33 | 51.06615 | 0.94071 | 12029 ft | 296 kts | 225° |
| 2026-05-06 20:33 | 51.05311 | 0.91560 | 12005 ft | 294 kts | 240° |
| 2026-05-06 20:34 | 51.04393 | 0.88663 | 12011 ft | 293 kts | 246° |
| 2026-05-06 20:34 | 51.03528 | 0.85727 | 12006 ft | 293 kts | 246° |
| 2026-05-06 20:34 | 51.02657 | 0.82798 | 12001 ft | 293 kts | 246° |
| 2026-05-06 20:34 | 51.01781 | 0.79869 | 12000 ft | 293 kts | 246° |
| 2026-05-06 20:35 | 51.00903 | 0.76944 | 11998 ft | 293 kts | 246° |
| 2026-05-06 20:35 | 51.00023 | 0.74019 | 12002 ft | 293 kts | 246° |
| 2026-05-06 20:35 | 50.99141 | 0.71095 | 11956 ft | 294 kts | 245° |
| 2026-05-06 20:35 | 50.98262 | 0.68179 | 11703 ft | 292 kts | 246° |
| 2026-05-06 20:36 | 50.97388 | 0.65276 | 11447 ft | 291 kts | 246° |
| 2026-05-06 20:36 | 50.96518 | 0.62381 | 11207 ft | 290 kts | 246° |
| 2026-05-06 20:36 | 50.95651 | 0.59502 | 10958 ft | 289 kts | 245° |
| 2026-05-06 20:36 | 50.94794 | 0.56675 | 10712 ft | 288 kts | 245° |
| 2026-05-06 20:37 | 50.93930 | 0.53819 | 10473 ft | 287 kts | 245° |
| 2026-05-06 20:37 | 50.93072 | 0.50978 | 10225 ft | 286 kts | 246° |
| 2026-05-06 20:37 | 50.92219 | 0.48138 | 9985 ft | 284 kts | 248° |
| 2026-05-06 20:37 | 50.91684 | 0.45147 | 9663 ft | 281 kts | 264° |
| 2026-05-06 20:38 | 50.91705 | 0.42080 | 9345 ft | 278 kts | 280° |
| 2026-05-06 20:38 | 50.92188 | 0.39120 | 9063 ft | 277 kts | 287° |
| 2026-05-06 20:38 | 50.92730 | 0.36197 | 9001 ft | 277 kts | 287° |
| 2026-05-06 20:38 | 50.93268 | 0.33257 | 9015 ft | 278 kts | 287° |
| 2026-05-06 20:39 | 50.93805 | 0.30324 | 9021 ft | 278 kts | 287° |
| 2026-05-06 20:39 | 50.94340 | 0.27377 | 9023 ft | 278 kts | 286° |
| 2026-05-06 20:39 | 50.94872 | 0.24434 | 9011 ft | 278 kts | 286° |
| 2026-05-06 20:39 | 50.95403 | 0.21485 | 9017 ft | 277 kts | 286° |
| 2026-05-06 20:40 | 50.95933 | 0.18547 | 9012 ft | 278 kts | 286° |
| 2026-05-06 20:40 | 50.96465 | 0.15592 | 8918 ft | 279 kts | 286° |
| 2026-05-06 20:40 | 50.96995 | 0.12651 | 8654 ft | 277 kts | 286° |
| 2026-05-06 20:40 | 50.97516 | 0.09763 | 8396 ft | 275 kts | 286° |
| 2026-05-06 20:41 | 50.98042 | 0.06847 | 8145 ft | 274 kts | 286° |
| 2026-05-06 20:41 | 50.98566 | 0.03950 | 8004 ft | 273 kts | 286° |
| 2026-05-06 20:41 | 50.99090 | 0.01049 | 8012 ft | 274 kts | 286° |
| 2026-05-06 20:41 | 50.99615 | -0.01854 | 8016 ft | 274 kts | 287° |
| 2026-05-06 20:42 | 51.00132 | -0.04760 | 8025 ft | 274 kts | 286° |
| 2026-05-06 20:42 | 51.00644 | -0.07666 | 8026 ft | 274 kts | 286° |
| 2026-05-06 20:42 | 51.01156 | -0.10574 | 8019 ft | 273 kts | 286° |
| 2026-05-06 20:42 | 51.01669 | -0.13488 | 7999 ft | 274 kts | 286° |
| 2026-05-06 20:43 | 51.02181 | -0.16401 | 7696 ft | 272 kts | 286° |
| 2026-05-06 20:43 | 51.02689 | -0.19301 | 7379 ft | 270 kts | 286° |
| 2026-05-06 20:43 | 51.02981 | -0.22202 | 7100 ft | 270 kts | 273° |
| 2026-05-06 20:43 | 51.03022 | -0.25183 | 6794 ft | 269 kts | 271° |
| 2026-05-06 20:44 | 51.03033 | -0.28146 | 6498 ft | 268 kts | 271° |
| 2026-05-06 20:44 | 51.03040 | -0.31095 | 6189 ft | 267 kts | 271° |
| 2026-05-06 20:44 | 51.03048 | -0.34038 | 5868 ft | 265 kts | 271° |
| 2026-05-06 20:44 | 51.03056 | -0.36930 | 5554 ft | 259 kts | 271° |
| 2026-05-06 20:45 | 51.03061 | -0.39758 | 5233 ft | 253 kts | 271° |
| 2026-05-06 20:45 | 51.03069 | -0.42516 | 4990 ft | 246 kts | 271° |
| 2026-05-06 20:45 | 51.03075 | -0.45191 | 4729 ft | 239 kts | 271° |
| 2026-05-06 20:45 | 51.03133 | -0.47805 | 4459 ft | 233 kts | 282° |
| 2026-05-06 20:46 | 51.03829 | -0.50034 | 4200 ft | 224 kts | 315° |
| 2026-05-06 20:46 | 51.05117 | -0.51320 | 3939 ft | 218 kts | 338° |
| 2026-05-06 20:46 | 51.06515 | -0.52172 | 3678 ft | 214 kts | 341° |
| 2026-05-06 20:46 | 51.07952 | -0.52563 | 3422 ft | 209 kts | 8° |
| 2026-05-06 20:47 | 51.09241 | -0.51606 | 3216 ft | 206 kts | 41° |
| 2026-05-06 20:47 | 51.10163 | -0.49896 | 3080 ft | 201 kts | 56° |
| 2026-05-06 20:47 | 51.10755 | -0.47926 | 3000 ft | 194 kts | 71° |
| 2026-05-06 20:47 | 51.11065 | -0.45882 | 3029 ft | 187 kts | 75° |
| 2026-05-06 20:48 | 51.11348 | -0.43878 | 3013 ft | 185 kts | 75° |
| 2026-05-06 20:48 | 51.11630 | -0.41879 | 2896 ft | 183 kts | 75° |
| 2026-05-06 20:48 | 51.11901 | -0.39948 | 2693 ft | 175 kts | 75° |
| 2026-05-06 20:48 | 51.12160 | -0.38102 | 2479 ft | 170 kts | 75° |
| 2026-05-06 20:49 | 51.12417 | -0.36264 | 2243 ft | 164 kts | 75° |
| 2026-05-06 20:49 | 51.12658 | -0.34535 | 2040 ft | 160 kts | 75° |
| 2026-05-06 20:49 | 51.12902 | -0.32792 | 1803 ft | 159 kts | 75° |
| 2026-05-06 20:49 | 51.13140 | -0.31086 | 1590 ft | 158 kts | 75° |
| 2026-05-06 20:50 | 51.13378 | -0.29380 | 1370 ft | 158 kts | 75° |
| 2026-05-06 20:50 | 51.13608 | -0.27721 | 1146 ft | 149 kts | 75° |
| 2026-05-06 20:50 | 51.13826 | -0.26151 | 942 ft | 141 kts | 76° |
| 2026-05-06 20:50 | 51.14035 | -0.24652 | 757 ft | 137 kts | 77° |
| 2026-05-06 20:51 | 51.14238 | -0.23178 | 574 ft | 135 kts | 78° |
| 2026-05-06 20:51 | 51.14438 | -0.21717 | 380 ft | 135 kts | 78° |
| 2026-05-06 20:51 | 51.14643 | -0.20265 | 221 ft | 133 kts | 78° |
| 2026-05-06 20:51 | 51.14820 | -0.18989 | 207 ft | 96 kts | 77° |
| 2026-05-06 20:52 | 51.14926 | -0.18217 | 206 ft | 44 kts | 77° |
| 2026-05-06 20:52 | 51.14991 | -0.17943 | 210 ft | 24 kts | 58° |
| 2026-05-06 20:52 | 51.15049 | -0.17808 | 214 ft | 15 kts | 53° |
| 2026-05-06 20:52 | 51.15111 | -0.17754 | 205 ft | 7 kts | 352° |
| 2026-05-06 20:53 | 51.15153 | -0.17763 | 211 ft | 5 kts | 353° |
| 2026-05-06 20:53 | 51.15164 | -0.17766 | 205 ft | 0 kts | 352° |
| 2026-05-06 20:53 | 51.15166 | -0.17766 | 205 ft | 2 kts | 352° |
| 2026-05-06 20:54 | 51.15178 | -0.17768 | 209 ft | 4 kts | 353° |
| 2026-05-06 20:54 | 51.15192 | -0.17771 | 212 ft | 0 kts | 352° |
| 2026-05-06 20:54 | 51.15196 | -0.17772 | 211 ft | 2 kts | 352° |
| 2026-05-06 20:55 | 51.15208 | -0.17775 | 212 ft | 2 kts | 352° |
| 2026-05-06 20:55 | 51.15228 | -0.17778 | 205 ft | 5 kts | 358° |
| 2026-05-06 20:55 | 51.15262 | -0.17726 | 210 ft | 10 kts | 70° |
| 2026-05-06 20:55 | 51.15281 | -0.17590 | 204 ft | 15 kts | 78° |
| 2026-05-06 20:56 | 51.15300 | -0.17446 | 206 ft | 8 kts | 79° |
| 2026-05-06 20:56 | 51.15328 | -0.17367 | 216 ft | 10 kts | 12° |
| 2026-05-06 20:56 | 51.15417 | -0.17392 | 210 ft | 15 kts | 347° |
| 2026-05-06 20:56 | 51.15517 | -0.17427 | 204 ft | 15 kts | 347° |
| 2026-05-06 20:57 | 51.15612 | -0.17461 | 207 ft | 14 kts | 347° |
| 2026-05-06 20:57 | 51.15713 | -0.17496 | 204 ft | 12 kts | 348° |
| 2026-05-06 20:57 | 51.15769 | -0.17452 | 210 ft | 12 kts | 72° |
| 2026-05-06 20:57 | 51.15787 | -0.17326 | 204 ft | 10 kts | 78° |
| 2026-05-06 20:58 | 51.15801 | -0.17220 | 204 ft | 9 kts | 77° |
| 2026-05-06 20:58 | 51.15822 | -0.17163 | 209 ft | 6 kts | 5° |
| 2026-05-06 20:58 | 51.15869 | -0.17178 | 209 ft | 6 kts | 340° |
| 2026-05-06 20:58 | 51.15885 | -0.17189 | 210 ft | 1 kts | 338° |
| 2026-05-06 20:59 | 51.15886 | -0.17189 | 210 ft | 0 kts | 338° |